createdAt,value
2018-06-05T00:02:11.197Z,20.10
2018-06-05T00:04:39.914Z,20.00
2018-06-05T00:07:08.244Z,20.00
2018-06-05T00:09:36.586Z,20.00
2018-06-05T00:12:04.901Z,20.00
2018-06-05T00:14:33.492Z,20.00
2018-06-05T00:17:01.993Z,20.00
2018-06-05T00:19:30.297Z,20.00
2018-06-05T00:21:58.637Z,19.90
2018-06-05T00:24:26.978Z,19.90
2018-06-05T00:26:55.369Z,19.90
2018-06-05T00:29:24.369Z,19.80
2018-06-05T00:31:52.824Z,19.80
2018-06-05T00:34:21.272Z,19.70
2018-06-05T00:36:49.664Z,19.70
2018-06-05T00:39:18.043Z,19.70
2018-06-05T00:41:46.388Z,19.80
2018-06-05T00:44:14.704Z,19.80
2018-06-05T00:46:43.042Z,19.70
2018-06-05T00:49:11.494Z,19.50
2018-06-05T00:51:51.192Z,19.50
2018-06-05T00:54:19.493Z,19.40
2018-06-05T00:56:48.051Z,19.40
2018-06-05T00:59:16.361Z,19.50
2018-06-05T01:01:44.816Z,19.40
2018-06-05T01:04:13.263Z,19.40
2018-06-05T01:06:41.570Z,19.50
2018-06-05T01:09:09.905Z,19.50
2018-06-05T01:11:38.222Z,19.40
2018-06-05T01:14:06.509Z,19.30
2018-06-05T01:16:34.893Z,19.30
2018-06-05T01:19:03.184Z,19.30
2018-06-05T01:21:31.457Z,19.30
2018-06-05T01:23:59.748Z,19.20
2018-06-05T01:26:28.034Z,19.20
2018-06-05T01:28:56.376Z,19.10
2018-06-05T01:31:25.641Z,19.00
2018-06-05T01:33:53.950Z,18.90
2018-06-05T01:36:22.236Z,18.90
2018-06-05T01:38:50.534Z,18.80
2018-06-05T01:41:18.828Z,18.80
2018-06-05T01:43:47.186Z,18.70
2018-06-05T01:46:15.489Z,18.70
2018-06-05T01:48:43.777Z,18.70
2018-06-05T01:51:12.110Z,18.60
2018-06-05T01:53:40.449Z,18.50
2018-06-05T01:56:08.754Z,18.50
2018-06-05T01:58:37.082Z,18.50
2018-06-05T02:01:05.458Z,18.40
2018-06-05T02:03:33.797Z,18.40
2018-06-05T02:06:02.121Z,18.30
2018-06-05T02:08:30.466Z,18.20
2018-06-05T02:10:58.815Z,18.20
2018-06-05T02:13:27.145Z,18.00
2018-06-05T02:15:55.476Z,18.00
2018-06-05T02:18:23.822Z,17.90
2018-06-05T02:20:52.152Z,18.00
2018-06-05T02:23:20.493Z,18.00
2018-06-05T02:25:48.785Z,18.00
2018-06-05T02:28:17.088Z,18.00
2018-06-05T02:30:45.415Z,17.90
2018-06-05T02:33:13.699Z,17.90
2018-06-05T02:35:42.056Z,17.90
2018-06-05T02:38:10.655Z,17.80
2018-06-05T02:40:39.115Z,17.80
2018-06-05T02:43:08.317Z,17.90
2018-06-05T02:45:37.443Z,17.80
2018-06-05T02:48:05.911Z,17.90
2018-06-05T02:50:34.256Z,17.80
2018-06-05T02:53:03.252Z,17.80
2018-06-05T02:55:31.630Z,17.80
2018-06-05T02:58:00.192Z,17.70
2018-06-05T03:00:28.861Z,17.70
2018-06-05T03:02:58.177Z,17.60
2018-06-05T03:05:26.528Z,17.60
2018-06-05T03:07:54.814Z,17.60
2018-06-05T03:10:23.115Z,17.50
2018-06-05T03:12:51.442Z,17.60
2018-06-05T03:15:19.750Z,17.50
2018-06-05T03:20:16.032Z,17.50
2018-06-05T03:22:44.372Z,17.50
2018-06-05T03:25:12.732Z,17.50
2018-06-05T03:27:41.538Z,17.40
2018-06-05T03:30:09.946Z,17.40
2018-06-05T03:32:38.294Z,17.30
2018-06-05T03:35:06.785Z,17.40
2018-06-05T03:37:35.160Z,17.40
2018-06-05T03:40:03.570Z,17.40
2018-06-05T03:42:31.949Z,17.40
2018-06-05T03:45:00.261Z,17.40
2018-06-05T03:47:28.700Z,17.60
2018-06-05T03:49:56.996Z,17.70
2018-06-05T03:52:25.463Z,17.90
2018-06-05T03:54:53.745Z,18.00
2018-06-05T03:57:22.072Z,18.20
2018-06-05T03:59:50.454Z,18.30
2018-06-05T04:02:18.802Z,18.50
2018-06-05T04:04:47.122Z,18.60
2018-06-05T04:07:15.462Z,18.70
2018-06-05T04:09:43.817Z,18.90
2018-06-05T04:12:12.165Z,19.00
2018-06-05T04:14:40.577Z,19.20
2018-06-05T04:17:08.930Z,19.30
2018-06-05T04:19:37.265Z,19.40
2018-06-05T04:22:05.646Z,19.60
2018-06-05T04:24:33.997Z,19.70
2018-06-05T04:27:02.380Z,19.70
2018-06-05T04:29:30.723Z,19.80
2018-06-05T04:31:59.113Z,19.90
2018-06-05T04:34:27.395Z,19.80
2018-06-05T04:36:56.036Z,19.90
2018-06-05T04:39:24.776Z,20.00
2018-06-05T04:41:53.070Z,20.00
2018-06-05T04:44:21.593Z,20.10
2018-06-05T04:46:49.888Z,20.10
2018-06-05T04:49:18.210Z,20.20
2018-06-05T04:51:46.511Z,20.20
2018-06-05T04:54:14.795Z,20.30
2018-06-05T04:56:43.094Z,20.40
2018-06-05T04:59:11.415Z,20.50
2018-06-05T05:01:39.730Z,20.50
2018-06-05T05:04:08.043Z,20.50
2018-06-05T05:06:36.346Z,20.60
2018-06-05T05:09:06.414Z,20.40
2018-06-05T05:11:34.726Z,20.30
2018-06-05T05:14:03.184Z,20.30
2018-06-05T05:16:31.767Z,20.60
2018-06-05T05:19:00.245Z,20.80
2018-06-05T05:21:28.685Z,21.00
2018-06-05T05:23:57.099Z,21.10
2018-06-05T05:26:25.580Z,20.90
2018-06-05T05:28:54.066Z,20.70
2018-06-05T05:31:22.511Z,20.90
2018-06-05T05:33:50.991Z,20.90
2018-06-05T05:36:19.551Z,20.90
2018-06-05T05:38:48.033Z,20.80
2018-06-05T05:41:16.541Z,20.70
2018-06-05T05:43:44.850Z,20.50
2018-06-05T05:46:13.357Z,20.50
2018-06-05T05:48:41.771Z,20.50
2018-06-05T05:51:10.155Z,20.50
2018-06-05T05:53:38.544Z,20.70
2018-06-05T05:56:07.056Z,20.90
2018-06-05T05:58:35.394Z,20.80
2018-06-05T06:01:03.904Z,20.70
2018-06-05T06:03:32.425Z,20.70
2018-06-05T06:06:00.851Z,20.70
2018-06-05T06:08:29.216Z,20.70
2018-06-05T06:10:57.627Z,20.60
2018-06-05T06:13:25.941Z,20.70
2018-06-05T06:15:54.309Z,20.70
2018-06-05T06:18:22.753Z,20.80
2018-06-05T06:20:51.387Z,20.80
2018-06-05T06:23:19.970Z,20.90
2018-06-05T06:25:48.273Z,21.00
2018-06-05T06:28:16.611Z,21.30
2018-06-05T06:30:44.914Z,21.50
2018-06-05T06:33:13.471Z,21.60
2018-06-05T06:35:41.790Z,21.70
2018-06-05T06:38:10.166Z,21.80
2018-06-05T06:40:38.449Z,21.80
2018-06-05T06:43:06.854Z,21.60
2018-06-05T06:45:35.301Z,21.70
2018-06-05T06:48:03.617Z,21.90
2018-06-05T06:50:31.894Z,21.90
2018-06-05T06:53:00.199Z,22.00
2018-06-05T06:55:28.573Z,22.00
2018-06-05T06:57:57.007Z,22.00
2018-06-05T07:00:25.444Z,22.10
2018-06-05T07:02:53.733Z,22.20
2018-06-05T07:05:22.101Z,22.30
2018-06-05T07:07:50.493Z,22.30
2018-06-05T07:10:18.894Z,22.40
2018-06-05T07:12:47.266Z,22.40
2018-06-05T07:15:16.528Z,22.60
2018-06-05T07:17:44.828Z,22.40
2018-06-05T07:20:13.447Z,22.40
2018-06-05T07:22:41.737Z,22.40
2018-06-05T07:25:10.023Z,22.40
2018-06-05T07:27:38.328Z,22.60
2018-06-05T07:30:06.651Z,22.70
2018-06-05T07:32:34.926Z,22.70
2018-06-05T07:35:03.233Z,22.80
2018-06-05T07:37:31.543Z,22.80
2018-06-05T07:40:00.122Z,22.80
2018-06-05T07:42:28.428Z,22.90
2018-06-05T07:44:56.707Z,23.00
2018-06-05T07:47:25.014Z,23.10
2018-06-05T07:49:53.318Z,23.10
2018-06-05T07:52:21.636Z,23.00
2018-06-05T07:54:49.929Z,23.20
2018-06-05T07:57:18.325Z,23.60
2018-06-05T07:59:46.685Z,23.90
2018-06-05T08:02:14.994Z,24.20
2018-06-05T08:04:43.293Z,24.20
2018-06-05T08:07:11.633Z,24.30
2018-06-05T08:09:39.928Z,24.20
2018-06-05T08:12:08.208Z,24.20
2018-06-05T08:14:36.502Z,24.20
2018-06-05T08:17:04.861Z,24.20
2018-06-05T08:19:33.151Z,24.20
2018-06-05T08:22:01.476Z,24.20
2018-06-05T08:24:29.819Z,24.10
2018-06-05T08:26:58.085Z,24.10
2018-06-05T08:29:26.370Z,24.20
2018-06-05T08:31:54.664Z,24.00
2018-06-05T08:34:22.977Z,24.20
2018-06-05T08:36:51.300Z,24.40
2018-06-05T08:39:19.589Z,24.70
2018-06-05T08:41:47.946Z,24.70
2018-06-05T08:44:16.233Z,24.50
2018-06-05T08:46:44.532Z,24.50
2018-06-05T08:49:12.817Z,24.60
2018-06-05T08:51:41.122Z,24.60
2018-06-05T08:54:09.456Z,24.60
2018-06-05T08:56:37.750Z,24.70
2018-06-05T08:59:06.132Z,24.80
2018-06-05T09:01:34.456Z,25.00
2018-06-05T09:04:02.761Z,24.80
2018-06-05T09:06:31.234Z,24.70
2018-06-05T09:08:59.534Z,24.80
2018-06-05T09:11:27.848Z,24.90
2018-06-05T09:13:56.263Z,25.10
2018-06-05T09:16:24.538Z,25.10
2018-06-05T09:18:52.840Z,25.20
2018-06-05T09:21:21.132Z,25.20
2018-06-05T09:23:49.445Z,25.20
2018-06-05T09:26:17.733Z,25.20
2018-06-05T09:28:46.102Z,24.80
2018-06-05T09:31:14.389Z,24.90
2018-06-05T09:33:42.693Z,25.20
2018-06-05T09:36:11.063Z,25.50
2018-06-05T09:38:39.381Z,25.60
2018-06-05T09:41:07.673Z,25.80
2018-06-05T09:43:35.977Z,25.90
2018-06-05T09:46:04.290Z,25.90
2018-06-05T09:48:32.662Z,25.80
2018-06-05T09:51:00.973Z,25.90
2018-06-05T09:53:29.302Z,25.80
2018-06-05T09:55:57.694Z,25.80
2018-06-05T09:58:26.109Z,25.90
2018-06-05T10:00:54.283Z,26.00
2018-06-05T10:03:22.638Z,26.20
2018-06-05T10:05:50.993Z,26.20
2018-06-05T10:08:19.339Z,26.10
2018-06-05T10:10:47.738Z,25.80
2018-06-05T10:13:16.156Z,25.90
2018-06-05T10:15:44.415Z,26.00
2018-06-05T10:18:12.753Z,26.20
2018-06-05T10:20:41.057Z,26.10
2018-06-05T10:23:09.336Z,26.40
2018-06-05T10:25:37.877Z,26.60
2018-06-05T10:28:06.389Z,26.40
2018-06-05T10:30:35.751Z,26.40
2018-06-05T10:33:04.069Z,26.30
2018-06-05T10:35:32.373Z,26.50
2018-06-05T10:38:00.791Z,26.40
2018-06-05T10:40:29.256Z,26.10
2018-06-05T10:42:57.746Z,25.90
2018-06-05T10:45:26.154Z,25.90
2018-06-05T10:47:54.474Z,25.90
2018-06-05T10:50:22.803Z,26.00
2018-06-05T10:52:51.160Z,26.30
2018-06-05T10:55:19.556Z,26.40
2018-06-05T10:57:54.590Z,26.60
2018-06-05T11:00:22.948Z,26.50
2018-06-05T11:02:51.258Z,26.40
2018-06-05T11:05:19.528Z,26.60
2018-06-05T11:07:48.032Z,26.70
2018-06-05T11:10:16.464Z,26.50
2018-06-05T11:12:44.867Z,26.40
2018-06-05T11:15:13.180Z,26.60
2018-06-05T11:17:41.605Z,26.60
2018-06-05T11:20:09.944Z,26.50
2018-06-05T11:22:38.234Z,26.70
2018-06-05T11:25:06.598Z,26.90
2018-06-05T11:27:35.103Z,26.90
2018-06-05T11:30:04.017Z,26.90
2018-06-05T11:32:32.299Z,26.70
2018-06-05T11:35:00.643Z,27.00
2018-06-05T11:37:29.093Z,26.90
2018-06-05T11:39:57.508Z,26.70
2018-06-05T11:42:25.927Z,26.70
2018-06-05T11:44:54.220Z,26.80
2018-06-05T11:47:22.989Z,26.90
2018-06-05T11:49:51.382Z,26.90
2018-06-05T11:52:19.692Z,27.20
2018-06-05T11:54:48.198Z,27.50
2018-06-05T11:57:16.682Z,27.70
2018-06-05T11:59:45.153Z,27.90
2018-06-05T12:02:13.692Z,27.90
2018-06-05T12:04:42.180Z,27.90
2018-06-05T12:07:10.591Z,27.80
2018-06-05T12:09:38.921Z,27.80
2018-06-05T12:12:07.412Z,27.80
2018-06-05T12:14:35.747Z,27.60
2018-06-05T12:17:04.049Z,27.60
2018-06-05T12:19:32.392Z,27.80
2018-06-05T12:22:00.776Z,27.60
2018-06-05T12:24:29.217Z,27.60
2018-06-05T12:26:57.538Z,27.70
2018-06-05T12:29:26.002Z,27.90
2018-06-05T12:31:54.397Z,28.00
2018-06-05T12:34:22.822Z,28.00
2018-06-05T12:36:51.132Z,27.90
2018-06-05T12:39:19.593Z,27.90
2018-06-05T12:41:48.069Z,27.60
2018-06-05T12:44:16.296Z,27.70
2018-06-05T12:46:44.874Z,27.80
2018-06-05T12:49:19.634Z,28.00
2018-06-05T12:51:47.985Z,28.20
2018-06-05T12:54:16.405Z,28.00
2018-06-05T12:56:44.910Z,28.10
2018-06-05T12:59:13.390Z,28.10
2018-06-05T13:01:41.754Z,28.10
2018-06-05T13:04:10.120Z,28.10
2018-06-05T13:06:39.495Z,28.20
2018-06-05T13:09:08.232Z,28.20
2018-06-05T13:11:36.649Z,28.30
2018-06-05T13:14:04.957Z,28.50
2018-06-05T13:16:33.365Z,28.50
2018-06-05T13:19:01.675Z,28.80
2018-06-05T13:21:29.977Z,29.00
2018-06-05T13:23:58.502Z,28.60
2018-06-05T13:26:26.921Z,28.30
2018-06-05T13:28:55.190Z,28.20
2018-06-05T13:31:23.597Z,28.20
2018-06-05T13:33:51.898Z,28.30
2018-06-05T13:36:20.339Z,28.20
2018-06-05T13:38:48.719Z,28.30
2018-06-05T13:41:17.166Z,28.30
2018-06-05T13:43:45.792Z,28.30
2018-06-05T13:46:14.232Z,28.30
2018-06-05T13:48:42.505Z,28.40
2018-06-05T13:51:10.873Z,28.20
2018-06-05T13:53:39.156Z,28.10
2018-06-05T13:56:07.704Z,28.00
2018-06-05T13:58:35.968Z,28.10
2018-06-05T14:01:04.302Z,28.10
2018-06-05T14:03:32.596Z,28.00
2018-06-05T14:06:00.895Z,27.90
2018-06-05T14:08:29.325Z,27.90
2018-06-05T14:10:57.620Z,28.20
2018-06-05T14:13:25.908Z,28.20
2018-06-05T14:15:54.239Z,28.50
2018-06-05T14:18:22.621Z,28.60
2018-06-05T14:20:51.233Z,28.50
2018-06-05T14:23:22.499Z,28.60
2018-06-05T14:25:50.782Z,28.60
2018-06-05T14:28:19.231Z,28.60
2018-06-05T14:30:48.356Z,28.60
2018-06-05T14:33:16.719Z,28.30
2018-06-05T14:35:45.066Z,28.40
2018-06-05T14:40:41.500Z,28.30
2018-06-05T14:43:09.809Z,28.30
2018-06-05T14:45:38.253Z,28.30
2018-06-05T14:48:06.708Z,28.20
2018-06-05T14:50:35.332Z,28.20
2018-06-05T14:53:03.723Z,28.30
2018-06-05T14:55:32.174Z,28.30
2018-06-05T14:58:00.469Z,28.70
2018-06-05T15:00:28.766Z,28.80
2018-06-05T15:02:57.095Z,28.70
2018-06-05T15:05:25.503Z,28.60
2018-06-05T15:07:53.825Z,28.70
2018-06-05T15:10:22.108Z,29.00
2018-06-05T15:12:50.536Z,29.00
2018-06-05T15:15:18.952Z,28.90
2018-06-05T15:17:47.384Z,28.60
2018-06-05T15:20:15.811Z,28.70
2018-06-05T15:22:44.101Z,28.70
2018-06-05T15:25:12.393Z,28.80
2018-06-05T15:27:40.797Z,28.70
2018-06-05T15:30:11.216Z,28.90
2018-06-05T15:32:39.566Z,29.10
2018-06-05T15:35:07.843Z,29.10
2018-06-05T15:37:36.242Z,29.10
2018-06-05T15:40:04.660Z,29.10
2018-06-05T15:42:33.432Z,29.20
2018-06-05T15:45:02.645Z,29.80
2018-06-05T15:49:59.850Z,32.30
2018-06-05T15:52:28.241Z,32.80
2018-06-05T15:54:56.692Z,32.80
2018-06-05T15:57:25.003Z,33.80
2018-06-05T15:59:53.304Z,35.20
2018-06-05T16:02:21.613Z,35.80
2018-06-05T16:04:50.096Z,35.20
2018-06-05T16:07:18.415Z,35.30
2018-06-05T16:09:46.854Z,35.20
2018-06-05T16:12:15.274Z,35.30
2018-06-05T16:14:43.648Z,34.90
2018-06-05T16:17:12.157Z,35.60
2018-06-05T16:19:40.448Z,36.20
2018-06-05T16:22:08.852Z,35.40
2018-06-05T16:24:37.380Z,35.70
2018-06-05T16:27:05.725Z,35.20
2018-06-05T16:29:34.151Z,35.80
2018-06-05T16:32:02.581Z,35.90
2018-06-05T16:34:30.994Z,36.10
2018-06-05T16:36:59.293Z,35.80
2018-06-05T16:39:27.777Z,36.10
2018-06-05T16:41:56.107Z,35.90
2018-06-05T16:44:24.434Z,35.80
2018-06-05T16:46:52.878Z,36.30
2018-06-05T16:49:21.524Z,36.00
2018-06-05T16:51:49.883Z,35.30
2018-06-05T16:54:18.281Z,35.80
2018-06-05T16:56:46.585Z,35.80
2018-06-05T16:59:14.961Z,36.30
2018-06-05T17:01:43.241Z,36.40
2018-06-05T17:04:11.632Z,36.30
2018-06-05T17:06:40.088Z,35.40
2018-06-05T17:09:08.402Z,35.10
2018-06-05T17:11:36.806Z,35.30
2018-06-05T17:14:05.315Z,35.10
2018-06-05T17:16:33.603Z,34.60
2018-06-05T17:19:01.932Z,34.70
2018-06-05T17:21:30.517Z,33.50
2018-06-05T17:23:58.969Z,32.30
2018-06-05T17:26:27.273Z,33.00
2018-06-05T17:28:55.596Z,33.70
2018-06-05T17:31:24.010Z,34.10
2018-06-05T17:33:52.433Z,33.90
2018-06-05T17:36:20.972Z,34.00
2018-06-05T17:38:49.276Z,34.10
2018-06-05T17:41:17.852Z,34.00
2018-06-05T17:43:46.201Z,34.20
2018-06-05T17:46:14.614Z,34.40
2018-06-05T17:48:43.039Z,34.70
2018-06-05T17:51:11.410Z,34.40
2018-06-05T17:53:39.704Z,33.60
2018-06-05T17:56:08.029Z,33.90
2018-06-05T17:58:36.346Z,33.50
2018-06-05T18:01:04.789Z,33.00
2018-06-05T18:03:33.174Z,32.80
2018-06-05T18:06:01.541Z,32.80
2018-06-05T18:08:29.842Z,32.60
2018-06-05T18:10:58.133Z,32.50
2018-06-05T18:13:26.408Z,32.30
2018-06-05T18:15:54.952Z,32.00
2018-06-05T18:18:23.588Z,30.90
2018-06-05T18:20:52.161Z,30.20
2018-06-05T18:23:20.500Z,29.60
2018-06-05T18:25:48.809Z,29.00
2018-06-05T18:28:17.265Z,28.40
2018-06-05T18:30:45.591Z,27.90
2018-06-05T18:33:13.929Z,27.60
2018-06-05T18:35:42.313Z,27.30
2018-06-05T18:38:10.601Z,27.10
2018-06-05T18:40:38.918Z,27.00
2018-06-05T18:43:07.224Z,26.80
2018-06-05T18:45:35.694Z,26.80
2018-06-05T18:48:04.201Z,26.60
2018-06-05T18:50:32.500Z,26.50
2018-06-05T18:53:00.940Z,26.40
2018-06-05T18:55:29.253Z,26.20
2018-06-05T18:57:57.549Z,25.90
2018-06-05T19:00:26.015Z,25.80
2018-06-05T19:02:54.506Z,25.60
2018-06-05T19:05:22.975Z,25.40
2018-06-05T19:07:51.467Z,25.30
2018-06-05T19:10:19.974Z,25.10
2018-06-05T19:12:48.551Z,25.00
2018-06-05T19:15:16.987Z,25.00
2018-06-05T19:17:45.368Z,24.90
2018-06-05T19:20:13.791Z,24.80
2018-06-05T19:22:42.147Z,24.60
2018-06-05T19:25:10.433Z,24.50
2018-06-05T19:27:38.938Z,24.40
2018-06-05T19:30:07.261Z,24.30
2018-06-05T19:32:35.947Z,24.20
2018-06-05T19:35:04.277Z,24.00
2018-06-05T19:37:32.610Z,23.90
2018-06-05T19:40:01.286Z,23.80
2018-06-05T19:42:29.788Z,23.60
2018-06-05T19:44:58.109Z,23.60
2018-06-05T19:47:26.413Z,23.50
2018-06-05T19:49:54.850Z,23.40
2018-06-05T19:52:23.309Z,23.30
2018-06-05T19:54:51.596Z,23.20
2018-06-05T19:57:20.059Z,23.20
2018-06-05T19:59:48.595Z,23.10
2018-06-05T20:02:16.897Z,22.90
2018-06-05T20:04:45.208Z,22.80
2018-06-05T20:07:13.670Z,22.70
2018-06-05T20:09:42.062Z,22.70
2018-06-05T20:12:10.632Z,22.70
2018-06-05T20:14:39.103Z,22.60
2018-06-05T20:17:07.409Z,22.60
2018-06-05T20:19:35.829Z,22.50
2018-06-05T20:22:04.431Z,22.40
2018-06-05T20:27:01.017Z,22.40
2018-06-05T20:29:29.312Z,22.30
2018-06-05T20:31:57.605Z,22.10
2018-06-05T20:34:26.066Z,22.10
2018-06-05T20:36:54.418Z,22.10
2018-06-05T20:39:22.837Z,22.10
2018-06-05T20:41:51.251Z,22.10
2018-06-05T20:44:19.681Z,22.00
2018-06-05T20:46:48.021Z,21.80
2018-06-05T20:49:16.483Z,21.80
2018-06-05T20:51:44.793Z,21.70
2018-06-05T20:54:13.120Z,21.60
2018-06-05T20:56:41.412Z,21.50
2018-06-05T20:59:09.724Z,21.50
2018-06-05T21:01:38.014Z,21.40
2018-06-05T21:04:06.342Z,21.50
2018-06-05T21:06:34.641Z,21.50
2018-06-05T21:09:03.001Z,21.40
2018-06-05T21:11:31.281Z,21.30
2018-06-05T21:13:59.561Z,21.30
2018-06-05T21:16:27.853Z,21.30
2018-06-05T21:18:56.131Z,21.30
2018-06-05T21:21:24.491Z,21.20
2018-06-05T21:23:52.835Z,21.10
2018-06-05T21:26:21.132Z,21.10
2018-06-05T21:28:49.413Z,21.10
2018-06-05T21:31:17.734Z,21.00
2018-06-05T21:33:46.026Z,20.90
2018-06-05T21:36:14.302Z,20.80
2018-06-05T21:38:42.617Z,20.80
2018-06-05T21:41:10.949Z,20.80
2018-06-05T21:43:39.250Z,20.80
2018-06-05T21:46:07.546Z,20.70
2018-06-05T21:48:35.853Z,20.70
2018-06-05T21:51:04.136Z,20.60
2018-06-05T21:53:32.443Z,20.60
2018-06-05T21:56:00.765Z,20.60
2018-06-05T21:58:29.038Z,20.60
2018-06-05T22:00:57.345Z,20.60
2018-06-05T22:03:25.604Z,20.60
2018-06-05T22:05:53.891Z,20.50
2018-06-05T22:08:22.178Z,20.40
2018-06-05T22:10:50.477Z,20.30
2018-06-05T22:13:18.765Z,20.20
2018-06-05T22:15:47.074Z,20.20
2018-06-05T22:18:15.452Z,20.10
2018-06-05T22:20:43.736Z,20.00
2018-06-05T22:23:12.032Z,19.80
2018-06-05T22:25:40.406Z,19.80
2018-06-05T22:28:08.875Z,19.70
2018-06-05T22:30:37.174Z,19.80
2018-06-05T22:33:05.470Z,19.80
2018-06-05T22:35:33.770Z,19.80
2018-06-05T22:38:02.069Z,19.70
2018-06-05T22:40:30.360Z,19.60
2018-06-05T22:42:58.679Z,19.50
2018-06-05T22:45:26.977Z,19.60
2018-06-05T22:47:55.282Z,19.50
2018-06-05T22:50:23.581Z,19.40
2018-06-05T22:52:51.908Z,19.50
2018-06-05T22:55:20.325Z,19.50
2018-06-05T22:57:48.642Z,19.50
2018-06-05T23:00:22.880Z,19.50
2018-06-05T23:02:51.164Z,19.50
2018-06-05T23:05:19.465Z,19.50
2018-06-05T23:07:47.756Z,19.60
2018-06-05T23:10:16.060Z,19.70
2018-06-05T23:12:44.385Z,19.70
2018-06-05T23:15:12.693Z,19.70
2018-06-05T23:17:41.029Z,19.70
2018-06-05T23:20:09.329Z,19.70
2018-06-05T23:22:37.649Z,19.70
2018-06-05T23:25:06.011Z,19.60
2018-06-05T23:27:34.311Z,19.60
2018-06-05T23:30:02.625Z,19.60
2018-06-05T23:32:30.904Z,19.60
2018-06-05T23:34:59.214Z,19.60
2018-06-05T23:37:27.532Z,19.60
2018-06-05T23:39:55.833Z,19.60
2018-06-05T23:42:24.168Z,19.60
2018-06-05T23:44:52.479Z,19.50
2018-06-05T23:47:20.795Z,19.40
2018-06-05T23:49:49.060Z,19.50
2018-06-05T23:52:17.392Z,19.30
2018-06-05T23:54:52.068Z,19.30
2018-06-05T23:57:20.377Z,19.30
2018-06-05T23:59:48.652Z,19.20
